createdAt,value
2017-06-28T00:00:15.140Z,76.84
2017-06-28T00:02:42.681Z,76.90
2017-06-28T00:05:10.195Z,76.68
2017-06-28T00:07:37.767Z,76.87
2017-06-28T00:10:05.311Z,76.95
2017-06-28T00:12:32.887Z,76.75
2017-06-28T00:15:00.420Z,76.68
2017-06-28T00:17:28.079Z,76.32
2017-06-28T00:19:55.604Z,76.86
2017-06-28T00:22:23.107Z,77.16
2017-06-28T00:24:50.732Z,76.92
2017-06-28T00:27:18.339Z,77.28
2017-06-28T00:29:45.884Z,77.17
2017-06-28T00:32:13.434Z,77.08
2017-06-28T00:34:40.943Z,77.18
2017-06-28T00:37:08.475Z,77.26
2017-06-28T00:39:35.997Z,77.22
2017-06-28T00:42:03.539Z,77.06
2017-06-28T00:44:31.051Z,77.45
2017-06-28T00:46:58.600Z,77.49
2017-06-28T00:49:26.119Z,77.28
2017-06-28T00:51:53.673Z,76.87
2017-06-28T00:54:21.206Z,77.48
2017-06-28T00:56:48.764Z,77.51
2017-06-28T00:59:16.299Z,77.65
2017-06-28T01:01:43.810Z,77.21
2017-06-28T01:04:11.387Z,77.03
2017-06-28T01:06:38.939Z,76.88
2017-06-28T01:09:06.575Z,76.63
2017-06-28T01:11:34.089Z,76.77
2017-06-28T01:14:01.595Z,76.71
2017-06-28T01:16:29.142Z,77.08
2017-06-28T01:18:56.647Z,76.49
2017-06-28T01:21:24.219Z,77.04
2017-06-28T01:23:51.734Z,76.86
2017-06-28T01:26:19.275Z,76.76
2017-06-28T01:28:46.787Z,76.81
2017-06-28T01:31:14.315Z,76.80
2017-06-28T01:33:41.831Z,76.85
2017-06-28T01:36:09.392Z,76.66
2017-06-28T01:38:36.882Z,76.53
2017-06-28T01:41:04.401Z,76.93
2017-06-28T01:43:31.951Z,76.87
2017-06-28T01:45:59.471Z,76.99
2017-06-28T01:48:27.100Z,77.02
2017-06-28T01:50:54.603Z,77.04
2017-06-28T01:53:22.175Z,76.99
2017-06-28T01:55:49.683Z,76.65
2017-06-28T01:58:17.255Z,76.59
2017-06-28T02:00:44.759Z,76.79
2017-06-28T02:03:12.280Z,76.86
2017-06-28T02:05:39.807Z,76.59
2017-06-28T02:08:07.321Z,76.58
2017-06-28T02:10:34.867Z,76.72
2017-06-28T02:13:02.375Z,76.52
2017-06-28T02:15:29.904Z,76.77
2017-06-28T02:17:57.466Z,76.68
2017-06-28T02:20:25.004Z,76.79
2017-06-28T02:22:52.521Z,76.56
2017-06-28T02:25:20.051Z,76.43
2017-06-28T02:27:47.560Z,76.33
2017-06-28T02:30:15.096Z,76.58
2017-06-28T02:32:42.614Z,76.47
2017-06-28T02:35:10.198Z,76.49
2017-06-28T02:37:37.659Z,76.53
2017-06-28T02:40:05.165Z,76.43
2017-06-28T02:42:32.712Z,76.31
2017-06-28T02:45:00.223Z,76.34
2017-06-28T02:47:27.834Z,76.30
2017-06-28T02:49:55.359Z,76.22
2017-06-28T02:52:22.903Z,76.10
2017-06-28T02:54:50.418Z,75.98
2017-06-28T02:57:18.210Z,75.89
2017-06-28T02:59:45.724Z,76.13
2017-06-28T03:02:13.267Z,76.20
2017-06-28T03:04:40.787Z,76.43
2017-06-28T03:07:20.122Z,76.65
2017-06-28T03:09:47.631Z,76.84
2017-06-28T03:12:15.171Z,76.68
2017-06-28T03:14:42.687Z,76.85
2017-06-28T03:17:10.215Z,76.95
2017-06-28T03:19:37.734Z,76.47
2017-06-28T03:22:05.299Z,76.50
2017-06-28T03:24:32.809Z,76.27
2017-06-28T03:27:00.333Z,76.30
2017-06-28T03:29:27.875Z,76.14
2017-06-28T03:31:55.395Z,76.50
2017-06-28T03:34:22.987Z,76.07
2017-06-28T03:36:50.515Z,76.54
2017-06-28T03:39:18.055Z,77.59
2017-06-28T03:41:45.566Z,78.33
2017-06-28T03:44:13.136Z,78.73
2017-06-28T03:46:40.666Z,78.91
2017-06-28T03:49:08.195Z,79.40
2017-06-28T03:51:35.714Z,80.10
2017-06-28T03:54:03.248Z,80.51
2017-06-28T03:56:30.767Z,80.24
2017-06-28T03:58:58.310Z,80.07
2017-06-28T04:01:25.811Z,80.39
2017-06-28T04:03:53.351Z,80.82
2017-06-28T04:06:20.879Z,81.02
2017-06-28T04:08:48.404Z,80.97
2017-06-28T04:11:15.919Z,81.23
2017-06-28T04:13:43.457Z,80.80
2017-06-28T04:16:11.006Z,81.06
2017-06-28T04:18:38.568Z,80.66
2017-06-28T04:21:06.088Z,80.40
2017-06-28T04:23:33.682Z,80.40
2017-06-28T04:26:01.268Z,81.16
2017-06-28T04:28:28.795Z,82.51
2017-06-28T04:30:56.451Z,82.30
2017-06-28T04:33:23.992Z,82.41
2017-06-28T04:35:51.639Z,82.98
2017-06-28T04:38:19.175Z,83.94
2017-06-28T04:40:46.736Z,84.35
2017-06-28T04:43:14.287Z,85.07
2017-06-28T04:45:41.838Z,85.78
2017-06-28T04:48:09.339Z,86.52
2017-06-28T04:50:36.892Z,87.33
2017-06-28T04:53:04.415Z,87.26
2017-06-28T04:55:31.984Z,87.49
2017-06-28T04:57:59.515Z,87.45
2017-06-28T05:00:27.083Z,88.02
2017-06-28T05:02:54.591Z,88.04
2017-06-28T05:05:22.106Z,88.36
2017-06-28T05:07:49.691Z,87.75
2017-06-28T05:10:17.231Z,87.73
2017-06-28T05:12:44.741Z,88.05
2017-06-28T05:15:12.283Z,88.08
2017-06-28T05:17:39.803Z,87.73
2017-06-28T05:20:07.351Z,87.58
2017-06-28T05:22:34.871Z,87.17
2017-06-28T05:25:02.505Z,87.61
2017-06-28T05:27:30.028Z,86.72
2017-06-28T05:29:57.582Z,86.56
2017-06-28T05:32:25.091Z,86.36
2017-06-28T05:34:52.637Z,86.50
2017-06-28T05:37:20.171Z,87.17
2017-06-28T05:39:47.722Z,86.96
2017-06-28T05:42:15.245Z,87.14
2017-06-28T05:44:42.755Z,86.92
2017-06-28T05:47:10.313Z,86.71
2017-06-28T05:49:37.815Z,87.39
2017-06-28T05:52:05.472Z,87.56
2017-06-28T05:54:33.004Z,87.83
2017-06-28T05:57:00.507Z,86.34
2017-06-28T05:59:28.055Z,85.86
2017-06-28T06:01:55.563Z,85.85
2017-06-28T06:04:23.124Z,86.06
2017-06-28T06:06:50.646Z,85.36
2017-06-28T06:09:18.218Z,85.62
2017-06-28T06:11:45.730Z,85.43
2017-06-28T06:14:13.287Z,85.17
2017-06-28T06:16:40.885Z,85.22
2017-06-28T06:19:08.435Z,84.77
2017-06-28T06:21:35.964Z,84.28
2017-06-28T06:24:03.632Z,84.08
2017-06-28T06:26:31.162Z,84.91
2017-06-28T06:28:58.715Z,84.31
2017-06-28T06:31:26.307Z,83.37
2017-06-28T06:33:53.805Z,83.59
2017-06-28T06:36:21.515Z,83.51
2017-06-28T06:38:49.036Z,84.12
2017-06-28T06:41:16.683Z,84.53
2017-06-28T06:43:44.210Z,85.16
2017-06-28T06:46:11.719Z,85.27
2017-06-28T06:48:39.323Z,85.18
2017-06-28T06:51:06.895Z,85.39
2017-06-28T06:53:34.455Z,85.88
2017-06-28T06:56:02.017Z,85.93
2017-06-28T06:58:29.628Z,85.80
2017-06-28T07:00:57.172Z,86.08
2017-06-28T07:03:24.822Z,86.36
2017-06-28T07:05:52.397Z,86.12
2017-06-28T07:08:19.939Z,86.28
2017-06-28T07:10:47.494Z,85.96
2017-06-28T07:13:15.006Z,86.87
2017-06-28T07:15:42.604Z,86.49
2017-06-28T07:18:10.116Z,86.71
2017-06-28T07:20:37.675Z,86.85
2017-06-28T07:23:05.192Z,87.37
2017-06-28T07:25:32.885Z,87.33
2017-06-28T07:28:00.395Z,87.25
2017-06-28T07:30:27.911Z,87.31
2017-06-28T07:32:55.848Z,87.64
2017-06-28T07:35:23.414Z,87.42
2017-06-28T07:37:51.055Z,87.44
2017-06-28T07:40:18.658Z,86.96
2017-06-28T07:42:46.206Z,87.37
2017-06-28T07:45:13.732Z,86.10
2017-06-28T07:47:41.327Z,86.42
2017-06-28T07:50:08.839Z,86.22
2017-06-28T07:52:36.514Z,85.89
2017-06-28T07:55:04.023Z,86.11
2017-06-28T07:57:31.529Z,86.88
2017-06-28T07:59:59.087Z,86.64
2017-06-28T08:02:26.666Z,85.98
2017-06-28T08:04:54.307Z,86.25
2017-06-28T08:07:21.832Z,86.07
2017-06-28T08:09:49.387Z,86.17
2017-06-28T08:12:16.931Z,87.12
2017-06-28T08:14:44.483Z,86.68
2017-06-28T08:17:12.002Z,86.73
2017-06-28T08:19:39.658Z,86.79
2017-06-28T08:22:07.187Z,85.96
2017-06-28T08:24:34.691Z,86.68
2017-06-28T08:27:02.239Z,86.10
2017-06-28T08:29:29.764Z,85.34
2017-06-28T08:31:57.323Z,85.38
2017-06-28T08:34:24.843Z,85.16
2017-06-28T08:36:52.472Z,85.11
2017-06-28T08:39:19.995Z,85.24
2017-06-28T08:41:47.577Z,85.35
2017-06-28T08:44:15.123Z,85.43
2017-06-28T08:46:42.772Z,84.57
2017-06-28T08:49:10.316Z,85.25
2017-06-28T08:51:37.827Z,85.70
2017-06-28T08:54:05.413Z,84.74
2017-06-28T08:56:32.948Z,84.09
2017-06-28T08:59:00.500Z,82.22
2017-06-28T09:01:28.011Z,81.69
2017-06-28T09:03:56.095Z,80.86
2017-06-28T09:06:23.597Z,80.05
2017-06-28T09:08:51.143Z,79.75
2017-06-28T09:11:18.665Z,78.79
2017-06-28T09:13:46.316Z,78.48
2017-06-28T09:16:13.839Z,78.66
2017-06-28T09:18:41.349Z,77.31
2017-06-28T09:21:08.914Z,77.84
2017-06-28T09:23:36.427Z,76.92
2017-06-28T09:26:03.987Z,75.78
2017-06-28T09:28:31.540Z,75.37
2017-06-28T09:30:59.079Z,74.66
2017-06-28T09:33:26.596Z,74.25
2017-06-28T09:35:54.152Z,74.35
2017-06-28T09:38:21.691Z,75.63
2017-06-28T09:40:49.352Z,76.41
2017-06-28T09:43:16.916Z,75.90
2017-06-28T09:45:44.477Z,76.99
2017-06-28T09:48:12.038Z,75.36
2017-06-28T09:50:39.559Z,75.58
2017-06-28T09:53:07.161Z,74.62
2017-06-28T09:55:34.697Z,75.20
2017-06-28T09:58:02.371Z,75.76
2017-06-28T10:00:29.909Z,76.56
2017-06-28T10:02:57.573Z,76.34
2017-06-28T10:05:25.080Z,77.06
2017-06-28T10:07:52.641Z,77.57
2017-06-28T10:10:20.160Z,78.37
2017-06-28T10:12:47.827Z,78.19
2017-06-28T10:15:15.379Z,78.07
2017-06-28T10:17:42.913Z,76.93
2017-06-28T10:20:10.480Z,77.14
2017-06-28T10:22:38.025Z,74.90
2017-06-28T10:25:05.623Z,74.45
2017-06-28T10:27:33.139Z,73.28
2017-06-28T10:30:00.682Z,73.07
2017-06-28T10:32:28.198Z,72.48
2017-06-28T10:34:55.735Z,72.12
2017-06-28T10:37:23.295Z,72.75
2017-06-28T10:39:50.856Z,73.25
2017-06-28T10:42:18.450Z,71.78
2017-06-28T10:44:46.117Z,71.99
2017-06-28T10:47:13.709Z,72.18
2017-06-28T10:49:41.270Z,72.10
2017-06-28T10:52:08.847Z,72.01
2017-06-28T10:54:36.380Z,70.76
2017-06-28T10:57:03.935Z,70.98
2017-06-28T10:59:31.439Z,70.93
2017-06-28T11:01:58.975Z,70.82
2017-06-28T11:04:26.495Z,70.56
2017-06-28T11:06:54.039Z,71.16
2017-06-28T11:09:21.586Z,70.86
2017-06-28T11:11:49.107Z,70.42
2017-06-28T11:14:16.660Z,70.48
2017-06-28T11:16:44.362Z,69.75
2017-06-28T11:19:11.919Z,70.05
2017-06-28T11:21:39.431Z,69.75
2017-06-28T11:24:07.083Z,69.21
2017-06-28T11:26:34.603Z,69.78
2017-06-28T11:29:02.119Z,70.07
2017-06-28T11:31:29.667Z,69.26
2017-06-28T11:33:57.189Z,69.62
2017-06-28T11:36:24.948Z,69.02
2017-06-28T11:38:52.462Z,68.65
2017-06-28T11:41:19.984Z,68.53
2017-06-28T11:43:47.537Z,68.79
2017-06-28T11:46:15.071Z,68.80
2017-06-28T11:48:42.706Z,69.33
2017-06-28T11:51:10.283Z,69.31
2017-06-28T11:53:37.918Z,69.36
2017-06-28T11:56:05.447Z,69.68
2017-06-28T11:58:32.954Z,68.95
2017-06-28T12:01:00.536Z,68.04
2017-06-28T12:03:28.052Z,67.12
2017-06-28T12:05:55.584Z,67.94
2017-06-28T12:08:23.091Z,67.65
2017-06-28T12:10:50.655Z,70.68
2017-06-28T12:13:19.144Z,74.80
2017-06-28T12:15:46.691Z,87.43
2017-06-28T12:18:14.199Z,92.00
2017-06-28T12:20:41.718Z,90.76
2017-06-28T12:23:09.259Z,91.99
2017-06-28T12:25:36.804Z,92.51
2017-06-28T12:28:04.366Z,92.03
2017-06-28T12:30:31.876Z,92.13
2017-06-28T12:32:59.636Z,92.81
2017-06-28T12:35:27.231Z,91.89
2017-06-28T12:37:54.739Z,91.79
2017-06-28T12:40:22.291Z,91.03
2017-06-28T12:42:49.815Z,90.65
2017-06-28T12:45:17.422Z,90.12
2017-06-28T12:47:45.000Z,90.77
2017-06-28T12:50:12.546Z,90.02
2017-06-28T12:52:40.093Z,90.00
2017-06-28T12:55:07.776Z,90.46
2017-06-28T12:57:35.291Z,90.62
2017-06-28T13:00:02.883Z,90.12
2017-06-28T13:02:30.504Z,90.50
2017-06-28T13:04:58.028Z,90.23
2017-06-28T13:07:25.586Z,88.73
2017-06-28T13:09:53.112Z,86.93
2017-06-28T13:12:20.755Z,86.99
2017-06-28T13:14:48.284Z,85.85
2017-06-28T13:17:15.808Z,86.50
2017-06-28T13:19:43.375Z,86.72
2017-06-28T13:22:10.911Z,85.62
2017-06-28T13:24:38.471Z,86.50
2017-06-28T13:27:05.990Z,85.83
2017-06-28T13:29:33.531Z,85.25
2017-06-28T13:32:01.038Z,85.79
2017-06-28T13:34:28.599Z,84.89
2017-06-28T13:36:56.179Z,86.38
2017-06-28T13:39:23.819Z,85.15
2017-06-28T13:41:51.326Z,84.55
2017-06-28T13:44:18.847Z,84.66
2017-06-28T13:46:46.387Z,84.29
2017-06-28T13:49:13.911Z,83.70
2017-06-28T13:51:41.456Z,83.64
2017-06-28T13:54:08.993Z,83.72
2017-06-28T13:56:36.559Z,82.42
2017-06-28T13:59:04.060Z,80.86
2017-06-28T14:01:31.755Z,80.54
2017-06-28T14:03:59.272Z,79.39
2017-06-28T14:06:26.796Z,80.85
2017-06-28T14:08:54.372Z,80.12
2017-06-28T14:11:21.895Z,81.92
2017-06-28T14:13:49.491Z,82.34
2017-06-28T14:16:17.040Z,82.34
2017-06-28T14:18:44.711Z,85.43
2017-06-28T14:21:12.295Z,87.77
2017-06-28T14:23:40.063Z,89.95
2017-06-28T14:26:07.585Z,91.37
2017-06-28T14:28:35.116Z,92.62
2017-06-28T14:31:02.679Z,93.37
2017-06-28T14:33:30.203Z,93.17
2017-06-28T14:35:57.771Z,90.08
2017-06-28T14:38:25.306Z,89.65
2017-06-28T14:40:52.972Z,87.63
2017-06-28T14:43:20.472Z,89.50
2017-06-28T14:45:47.980Z,89.76
2017-06-28T14:48:15.547Z,89.64
2017-06-28T14:50:43.047Z,88.42
2017-06-28T14:53:10.599Z,87.77
2017-06-28T14:55:38.109Z,85.06
2017-06-28T14:58:05.644Z,87.31
2017-06-28T15:00:33.158Z,88.70
2017-06-28T15:03:00.825Z,86.51
2017-06-28T15:05:28.339Z,87.22
2017-06-28T15:07:55.855Z,87.47
2017-06-28T15:10:23.448Z,88.35
2017-06-28T15:12:50.956Z,86.01
2017-06-28T15:15:18.511Z,85.45
2017-06-28T15:17:46.039Z,85.20
2017-06-28T15:20:13.639Z,81.17
2017-06-28T15:22:41.180Z,81.43
2017-06-28T15:25:08.847Z,82.79
2017-06-28T15:27:36.349Z,85.47
2017-06-28T15:30:03.869Z,86.42
2017-06-28T15:32:31.415Z,84.57
2017-06-28T15:34:58.951Z,84.69
2017-06-28T15:37:26.479Z,82.48
2017-06-28T15:39:54.055Z,81.86
2017-06-28T15:42:21.578Z,82.05
2017-06-28T15:44:49.114Z,83.71
2017-06-28T15:47:16.691Z,80.92
2017-06-28T15:49:44.207Z,79.07
2017-06-28T15:52:11.756Z,78.66
2017-06-28T15:54:39.230Z,78.14
2017-06-28T15:57:06.849Z,78.59
2017-06-28T15:59:34.383Z,77.13
2017-06-28T16:02:01.939Z,75.98
2017-06-28T16:04:29.459Z,77.44
2017-06-28T16:06:56.983Z,75.51
2017-06-28T16:09:24.519Z,75.90
2017-06-28T16:11:52.034Z,74.19
2017-06-28T16:14:19.596Z,73.03
2017-06-28T16:16:47.103Z,71.98
2017-06-28T16:19:14.708Z,71.20
2017-06-28T16:21:42.307Z,68.99
2017-06-28T16:24:09.869Z,67.96
2017-06-28T16:26:37.380Z,68.47
2017-06-28T16:29:04.987Z,69.08
2017-06-28T16:31:32.535Z,69.35
2017-06-28T16:34:00.094Z,70.33
2017-06-28T16:36:27.619Z,69.13
2017-06-28T16:38:55.135Z,65.20
2017-06-28T16:41:22.669Z,63.56
2017-06-28T16:43:50.191Z,64.51
2017-06-28T16:46:17.759Z,64.73
2017-06-28T16:48:45.267Z,66.12
2017-06-28T16:51:12.828Z,65.68
2017-06-28T16:53:40.343Z,63.51
2017-06-28T16:56:07.898Z,62.68
2017-06-28T16:58:35.419Z,63.36
2017-06-28T17:01:03.102Z,62.39
2017-06-28T17:03:30.638Z,61.78
2017-06-28T17:05:58.153Z,62.05
2017-06-28T17:08:25.705Z,62.80
2017-06-28T17:10:53.203Z,61.67
2017-06-28T17:13:20.748Z,63.08
2017-06-28T17:15:48.256Z,61.67
2017-06-28T17:18:15.799Z,60.39
2017-06-28T17:20:43.356Z,59.81
2017-06-28T17:23:11.055Z,59.38
2017-06-28T17:25:38.571Z,60.10
2017-06-28T17:28:06.107Z,59.17
2017-06-28T17:30:33.678Z,58.26
2017-06-28T17:33:01.204Z,58.46
2017-06-28T17:35:28.759Z,57.08
2017-06-28T17:37:56.413Z,56.38
2017-06-28T17:40:23.959Z,57.12
2017-06-28T17:42:51.490Z,56.49
2017-06-28T17:45:19.408Z,54.35
2017-06-28T17:47:46.976Z,54.86
2017-06-28T17:50:14.483Z,54.15
2017-06-28T17:52:42.091Z,55.39
2017-06-28T17:55:09.622Z,55.27
2017-06-28T17:57:37.179Z,56.02
2017-06-28T18:00:04.701Z,54.83
2017-06-28T18:02:32.347Z,55.75
2017-06-28T18:04:59.871Z,56.99
2017-06-28T18:07:27.455Z,56.78
2017-06-28T18:09:55.024Z,57.39
2017-06-28T18:12:22.536Z,56.08
2017-06-28T18:14:50.096Z,57.34
2017-06-28T18:17:17.711Z,56.04
2017-06-28T18:19:45.288Z,57.08
2017-06-28T18:22:12.800Z,56.76
2017-06-28T18:24:40.415Z,56.11
2017-06-28T18:27:07.928Z,57.31
2017-06-28T18:29:35.483Z,56.35
2017-06-28T18:32:03.101Z,56.83
2017-06-28T18:34:30.674Z,57.05
2017-06-28T18:36:58.271Z,57.54
2017-06-28T18:39:25.825Z,56.95
2017-06-28T18:41:53.385Z,57.57
2017-06-28T18:44:21.002Z,58.13
2017-06-28T18:46:48.531Z,58.35
2017-06-28T18:49:16.192Z,58.21
2017-06-28T18:51:43.766Z,57.60
2017-06-28T18:54:11.292Z,58.61
2017-06-28T18:56:38.841Z,59.09
2017-06-28T18:59:06.428Z,58.60
2017-06-28T19:01:34.014Z,59.12
2017-06-28T19:04:01.553Z,61.17
2017-06-28T19:06:29.208Z,61.82
2017-06-28T19:08:56.735Z,62.66
2017-06-28T19:11:24.262Z,60.51
2017-06-28T19:13:51.828Z,62.71
2017-06-28T19:16:19.355Z,62.54
2017-06-28T19:18:46.927Z,64.40
2017-06-28T19:21:14.453Z,63.23
2017-06-28T19:23:42.015Z,63.47
2017-06-28T19:26:09.527Z,64.87
2017-06-28T19:28:37.192Z,66.53
2017-06-28T19:31:04.728Z,68.56
2017-06-28T19:33:32.270Z,69.45
2017-06-28T19:35:59.840Z,70.42
2017-06-28T19:38:27.380Z,69.97
2017-06-28T19:40:54.957Z,70.77
2017-06-28T19:43:22.618Z,69.92
2017-06-28T19:45:50.201Z,70.64
2017-06-28T19:48:17.766Z,72.70
2017-06-28T19:50:45.635Z,73.82
2017-06-28T19:53:13.168Z,74.22
2017-06-28T19:55:40.706Z,73.77
2017-06-28T19:58:08.264Z,73.00
2017-06-28T20:00:35.780Z,71.67
2017-06-28T20:03:03.365Z,71.87
2017-06-28T20:05:30.896Z,74.43
2017-06-28T20:07:58.461Z,75.39
2017-06-28T20:10:26.052Z,75.96
2017-06-28T20:12:53.632Z,76.33
2017-06-28T20:15:21.168Z,76.91
2017-06-28T20:17:48.871Z,77.10
2017-06-28T20:20:16.392Z,77.23
2017-06-28T20:22:43.993Z,77.75
2017-06-28T20:25:11.553Z,77.78
2017-06-28T20:27:39.104Z,77.97
2017-06-28T20:30:06.675Z,77.52
2017-06-28T20:32:34.200Z,77.55
2017-06-28T20:35:01.779Z,77.83
2017-06-28T20:37:29.413Z,78.22
2017-06-28T20:39:57.242Z,77.87
2017-06-28T20:42:24.758Z,77.95
2017-06-28T20:44:52.397Z,77.66
2017-06-28T20:47:19.924Z,77.44
2017-06-28T20:49:47.447Z,78.12
2017-06-28T20:52:15.007Z,77.84
2017-06-28T20:54:42.543Z,77.63
2017-06-28T20:57:10.103Z,78.34
2017-06-28T20:59:37.620Z,77.76
2017-06-28T21:02:05.159Z,76.51
2017-06-28T21:04:32.675Z,76.30
2017-06-28T21:07:00.434Z,76.70
2017-06-28T21:09:27.977Z,77.44
2017-06-28T21:11:55.483Z,77.10
2017-06-28T21:14:23.033Z,77.37
2017-06-28T21:16:50.547Z,76.63
2017-06-28T21:19:18.091Z,76.41
2017-06-28T21:21:45.571Z,76.01
2017-06-28T21:24:13.154Z,75.23
2017-06-28T21:26:40.675Z,75.32
2017-06-28T21:29:08.723Z,75.14
2017-06-28T21:31:36.250Z,74.87
2017-06-28T21:34:03.774Z,75.20
2017-06-28T21:36:31.325Z,75.84
2017-06-28T21:38:58.895Z,75.31
2017-06-28T21:41:26.450Z,75.05
2017-06-28T21:43:54.018Z,74.61
2017-06-28T21:46:21.595Z,74.90
2017-06-28T21:48:49.110Z,74.92
2017-06-28T21:51:16.676Z,74.60
2017-06-28T21:53:44.228Z,75.15
2017-06-28T21:56:11.739Z,75.41
2017-06-28T21:58:39.328Z,74.91
2017-06-28T22:01:06.875Z,75.12
2017-06-28T22:03:34.429Z,74.84
2017-06-28T22:06:01.934Z,75.88
2017-06-28T22:08:29.513Z,76.02
2017-06-28T22:10:57.064Z,76.03
2017-06-28T22:13:24.992Z,76.18
2017-06-28T22:15:52.559Z,76.89
2017-06-28T22:18:32.784Z,78.09
2017-06-28T22:21:00.615Z,80.56
2017-06-28T22:23:28.135Z,80.17
2017-06-28T22:25:55.743Z,79.65
2017-06-28T22:28:23.351Z,79.03
2017-06-28T22:30:50.992Z,78.69
2017-06-28T22:33:18.524Z,79.16
2017-06-28T22:35:47.970Z,80.45
2017-06-28T22:38:17.630Z,80.60
2017-06-28T22:40:49.412Z,81.05
2017-06-28T22:43:17.006Z,80.03
2017-06-28T22:45:44.523Z,80.08
2017-06-28T22:48:12.142Z,80.51
2017-06-28T22:50:39.646Z,80.09
2017-06-28T22:53:07.218Z,79.49
2017-06-28T22:55:34.735Z,81.08
2017-06-28T22:58:02.283Z,81.10
2017-06-28T23:00:29.809Z,81.71
2017-06-28T23:02:57.396Z,81.54
2017-06-28T23:05:24.905Z,80.97
2017-06-28T23:07:52.631Z,80.89
2017-06-28T23:10:20.143Z,80.91
2017-06-28T23:12:47.655Z,80.28
2017-06-28T23:15:15.233Z,80.18
2017-06-28T23:17:42.752Z,81.50
2017-06-28T23:20:10.306Z,81.10
2017-06-28T23:22:37.811Z,80.76
2017-06-28T23:25:05.382Z,81.10
2017-06-28T23:27:32.923Z,79.66
2017-06-28T23:30:00.436Z,79.76
2017-06-28T23:32:27.995Z,80.52
2017-06-28T23:34:55.502Z,80.45
2017-06-28T23:37:23.051Z,80.43
2017-06-28T23:39:50.574Z,79.58
2017-06-28T23:42:18.139Z,78.91
2017-06-28T23:44:45.654Z,80.39
2017-06-28T23:47:13.231Z,80.85
2017-06-28T23:49:40.804Z,82.48
2017-06-28T23:52:08.306Z,83.63
2017-06-28T23:54:35.959Z,83.55
2017-06-28T23:57:03.534Z,83.48
2017-06-28T23:59:31.195Z,83.71
